Time;durP1;ratioP1;P1;durP2;ratioP2;P2;SDS_P1;SDS_P2;PMS_P1;PMS_P2;Temp;Humidity;BMP_temperature;BMP_pressure;BME280_temperature;BME280_humidity;BME280_pressure;Samples;Min_cycle;Max_cycle;Signal;HPM_P1;HPM_P2
2023/05/01 00:01:05;;;;;;;0.93;0.93;;;;;9.90;95928.00;;;;5072526;28;20202;-63
2023/05/01 00:03:33;;;;;;;1.27;1.27;;;;;9.90;95927.00;;;;5072484;28;20241;-62
2023/05/01 00:06:03;;;;;;;1.60;1.20;;;;;9.80;95925.00;;;;5055184;28;20203;-63
2023/05/01 00:08:30;;;;;;;1.07;1.07;;;;;9.80;95919.00;;;;5075984;28;20203;-62
2023/05/01 00:11:02;;;;;;;1.60;1.50;;;;;9.80;95919.00;;;;5076274;28;20191;-63
2023/05/01 00:13:29;;;;;;;1.03;1.03;;;;;9.80;95917.00;;;;5076295;28;20539;-63
2023/05/01 00:15:57;;;;;;;1.70;1.60;;;;;9.90;95915.00;;;;5076097;28;20196;-63
2023/05/01 00:18:25;;;;;;;2.37;2.17;;;;;9.80;95908.00;;;;5075915;28;20183;-63
2023/05/01 00:20:53;;;;;;;1.60;1.57;;;;;9.80;95902.00;;;;5076298;28;20294;-63
2023/05/01 00:23:21;;;;;;;1.33;1.23;;;;;9.80;95904.00;;;;5057837;28;20203;-63
2023/05/01 00:25:48;;;;;;;1.10;1.10;;;;;9.80;95905.00;;;;5075704;28;20199;-63
2023/05/01 00:28:17;;;;;;;0.70;0.70;;;;;9.70;95902.00;;;;5057646;28;20219;-63
2023/05/01 00:30:45;;;;;;;1.10;1.10;;;;;9.60;95892.00;;;;5075596;28;20211;-63
2023/05/01 00:33:13;;;;;;;1.30;1.30;;;;;9.50;95889.00;;;;5075888;28;20230;-62
2023/05/01 00:35:43;;;;;;;1.10;1.10;;;;;9.50;95893.00;;;;5076355;28;20198;-63
2023/05/01 00:38:12;;;;;;;1.33;1.33;;;;;9.50;95892.00;;;;5075422;28;20240;-63
2023/05/01 00:40:43;;;;;;;1.60;1.50;;;;;9.60;95891.00;;;;5089654;22;20306;-60
2023/05/01 00:43:11;;;;;;;0.87;0.87;;;;;9.60;95881.00;;;;5075355;28;20274;-61
2023/05/01 00:45:39;;;;;;;1.67;1.57;;;;;9.60;95893.00;;;;5075361;28;20226;-61
2023/05/01 00:48:09;;;;;;;1.20;1.20;;;;;9.50;95882.00;;;;5075887;28;20218;-61
2023/05/01 00:50:37;;;;;;;1.47;1.40;;;;;9.50;95887.00;;;;5075758;28;20219;-61
2023/05/01 00:53:04;;;;;;;1.80;1.70;;;;;9.50;95882.00;;;;5075367;28;20651;-60
2023/05/01 00:55:34;;;;;;;1.73;1.63;;;;;9.40;95886.00;;;;5075255;28;20191;-61
2023/05/01 00:58:02;;;;;;;1.30;1.30;;;;;9.50;95877.00;;;;5075221;28;20188;-61
2023/05/01 01:00:30;;;;;;;1.23;1.17;;;;;9.50;95878.00;;;;5074855;28;20215;-61
2023/05/01 01:02:57;;;;;;;1.70;1.60;;;;;9.50;95874.00;;;;5057972;28;20195;-60
2023/05/01 01:05:28;;;;;;;1.10;1.10;;;;;9.60;95876.00;;;;5075512;28;20198;-61
2023/05/01 01:08:05;;;;;;;1.17;1.13;;;;;9.60;95860.00;;;;5075293;28;20621;-60
2023/05/01 01:10:45;;;;;;;1.50;1.40;;;;;9.70;95860.00;;;;5074825;28;20215;-61
2023/05/01 01:13:20;;;;;;;1.90;1.33;;;;;9.60;95852.00;;;;5057457;28;20195;-61
2023/05/01 01:15:57;;;;;;;1.30;1.20;;;;;9.50;95845.00;;;;5076253;28;20363;-61
2023/05/01 01:18:34;;;;;;;1.07;1.07;;;;;9.50;95848.00;;;;5073791;28;20267;-61
2023/05/01 01:21:07;;;;;;;1.00;1.00;;;;;9.40;95848.00;;;;5074825;28;20222;-61
2023/05/01 01:23:53;;;;;;;1.20;1.10;;;;;9.40;95837.00;;;;5074911;28;20179;-61
2023/05/01 01:27:01;;;;;;;1.50;1.40;;;;;9.40;95842.00;;;;5075174;28;20183;-60
2023/05/01 01:29:51;;;;;;;0.97;0.97;;;;;9.50;95841.00;;;;5074670;28;20278;-61
2023/05/01 01:32:52;;;;;;;1.33;1.23;;;;;9.50;95846.00;;;;5075702;28;20592;-60
2023/05/01 01:35:25;;;;;;;1.33;1.27;;;;;9.40;95837.00;;;;5074622;28;20167;-60
2023/05/01 01:38:00;;;;;;;1.60;1.47;;;;;9.40;95833.00;;;;5074654;28;20201;-61
2023/05/01 01:40:34;;;;;;;1.33;1.30;;;;;9.40;95838.00;;;;5056526;28;20237;-61
2023/05/01 01:43:06;;;;;;;1.67;1.57;;;;;9.20;95835.00;;;;5074660;28;20187;-61
2023/05/01 01:45:38;;;;;;;1.30;1.30;;;;;9.20;95838.00;;;;5075098;28;20194;-60
2023/05/01 01:48:09;;;;;;;0.97;0.97;;;;;9.20;95841.00;;;;5074722;28;20196;-61
2023/05/01 01:50:39;;;;;;;3.20;1.77;;;;;9.20;95828.00;;;;5057550;28;20262;-59
2023/05/01 01:53:09;;;;;;;1.60;1.50;;;;;9.20;95836.00;;;;5086785;28;20244;-58
2023/05/01 01:55:38;;;;;;;1.17;1.17;;;;;9.20;95830.00;;;;5088249;28;20237;-58
2023/05/01 01:58:09;;;;;;;1.50;1.40;;;;;9.20;95829.00;;;;5088197;28;20217;-58
2023/05/01 02:00:40;;;;;;;1.77;1.67;;;;;9.10;95835.00;;;;5086872;28;20215;-58
2023/05/01 02:03:10;;;;;;;0.97;0.97;;;;;9.10;95830.00;;;;5088153;28;20180;-58
2023/05/01 02:05:40;;;;;;;1.67;1.57;;;;;9.10;95831.00;;;;5088527;28;20200;-58
2023/05/01 02:08:09;;;;;;;1.00;1.00;;;;;9.00;95823.00;;;;5088484;28;20219;-59
2023/05/01 02:10:38;;;;;;;1.53;1.43;;;;;9.00;95827.00;;;;5089047;28;20211;-58
2023/05/01 02:13:06;;;;;;;1.87;1.70;;;;;9.00;95821.00;;;;5088178;28;20196;-58
2023/05/01 02:15:36;;;;;;;1.20;1.20;;;;;9.10;95818.00;;;;5089271;28;20196;-58
2023/05/01 02:18:04;;;;;;;1.17;0.97;;;;;9.00;95813.00;;;;5089030;28;20258;-58
2023/05/01 02:20:32;;;;;;;1.73;1.60;;;;;9.00;95815.00;;;;5089426;28;20219;-58
2023/05/01 02:23:02;;;;;;;1.00;1.00;;;;;9.10;95818.00;;;;5090147;28;20195;-58
2023/05/01 02:25:31;;;;;;;1.20;1.20;;;;;8.90;95821.00;;;;5078114;28;20199;-60
2023/05/01 02:28:03;;;;;;;1.43;1.33;;;;;8.80;95818.00;;;;5081475;28;20215;-60
2023/05/01 02:30:31;;;;;;;1.70;1.60;;;;;8.90;95818.00;;;;5080397;28;20218;-59
2023/05/01 02:32:58;;;;;;;1.03;1.03;;;;;8.90;95809.00;;;;5058956;28;20197;-60
2023/05/01 02:35:25;;;;;;;1.37;1.27;;;;;8.90;95815.00;;;;5076871;28;20195;-59
2023/05/01 02:37:53;;;;;;;1.07;1.07;;;;;9.10;95805.00;;;;5065485;28;20192;-58
2023/05/01 02:40:22;;;;;;;1.00;1.00;;;;;9.00;95810.00;;;;5087800;28;20224;-58
2023/05/01 02:42:51;;;;;;;1.47;1.40;;;;;9.10;95810.00;;;;5088239;28;20283;-58
2023/05/01 02:45:22;;;;;;;1.37;1.33;;;;;9.10;95792.00;;;;5088770;28;20223;-58
2023/05/01 02:47:51;;;;;;;1.10;1.10;;;;;9.00;95796.00;;;;5086911;28;20210;-58
2023/05/01 02:50:21;;;;;;;1.20;1.20;;;;;8.90;95799.00;;;;5085904;28;20211;-58
2023/05/01 02:52:50;;;;;;;0.80;0.80;;;;;9.00;95796.00;;;;5085608;28;20195;-59
2023/05/01 02:55:17;;;;;;;2.40;1.90;;;;;9.00;95788.00;;;;5084889;28;20211;-58
2023/05/01 02:57:46;;;;;;;0.73;0.73;;;;;8.90;95787.00;;;;5085267;28;20184;-58
2023/05/01 03:00:14;;;;;;;0.80;0.80;;;;;8.90;95792.00;;;;5084297;28;20237;-58
2023/05/01 03:02:42;;;;;;;2.00;1.90;;;;;8.90;95786.00;;;;5084734;28;20209;-58
2023/05/01 03:05:09;;;;;;;1.10;1.10;;;;;9.00;95775.00;;;;5084973;28;20217;-57
2023/05/01 03:07:37;;;;;;;1.47;1.37;;;;;9.00;95779.00;;;;5086572;28;20218;-58
2023/05/01 03:10:06;;;;;;;3.90;1.47;;;;;9.00;95780.00;;;;5087610;28;20211;-57
2023/05/01 03:12:34;;;;;;;0.90;0.90;;;;;9.00;95775.00;;;;5087748;28;20192;-58
2023/05/01 03:15:03;;;;;;;1.73;1.63;;;;;8.90;95778.00;;;;5088403;28;20206;-58
2023/05/01 03:17:30;;;;;;;1.40;1.40;;;;;8.80;95774.00;;;;5089061;28;20183;-58
2023/05/01 03:19:58;;;;;;;1.70;1.60;;;;;8.90;95773.00;;;;5088954;28;20218;-58
2023/05/01 03:22:28;;;;;;;1.53;1.43;;;;;8.90;95771.00;;;;5089831;28;20197;-59
2023/05/01 03:24:55;;;;;;;1.33;1.27;;;;;8.80;95771.00;;;;5089136;28;20191;-59
2023/05/01 03:27:23;;;;;;;1.00;1.00;;;;;8.80;95768.00;;;;5087880;28;20199;-59
2023/05/01 03:29:51;;;;;;;1.47;1.37;;;;;8.80;95766.00;;;;5088958;28;20253;-58
2023/05/01 03:32:19;;;;;;;0.80;0.80;;;;;8.90;95761.00;;;;5087450;28;20223;-58
2023/05/01 03:34:47;;;;;;;1.30;1.23;;;;;8.70;95765.00;;;;5089656;28;20332;-58
2023/05/01 03:37:14;;;;;;;1.60;1.40;;;;;8.90;95767.00;;;;5087264;28;20183;-58
2023/05/01 03:39:42;;;;;;;1.13;1.13;;;;;8.80;95753.00;;;;5087241;28;20200;-59
2023/05/01 03:42:09;;;;;;;1.50;1.40;;;;;8.80;95763.00;;;;5079256;28;20646;-59
2023/05/01 03:44:36;;;;;;;1.00;1.00;;;;;8.80;95755.00;;;;5088070;28;20192;-59
2023/05/01 03:47:04;;;;;;;0.77;0.77;;;;;8.80;95752.00;;;;5090424;28;20195;-58
2023/05/01 03:49:32;;;;;;;1.10;1.10;;;;;8.80;95758.00;;;;5068373;28;20234;-61
2023/05/01 03:52:00;;;;;;;2.00;1.90;;;;;8.80;95759.00;;;;5091708;28;20211;-58
2023/05/01 03:54:27;;;;;;;1.17;1.17;;;;;8.80;95747.00;;;;5089376;28;20207;-59
2023/05/01 03:56:54;;;;;;;1.80;1.50;;;;;8.80;95749.00;;;;5069565;28;20266;-60
2023/05/01 03:59:22;;;;;;;2.07;1.97;;;;;8.80;95757.00;;;;5079808;28;20565;-60
2023/05/01 04:01:49;;;;;;;1.13;1.13;;;;;8.80;95743.00;;;;5077186;28;20246;-61
2023/05/01 04:04:17;;;;;;;1.80;1.60;;;;;8.90;95750.00;;;;5078936;28;20191;-60
2023/05/01 04:06:47;;;;;;;1.83;1.73;;;;;9.00;95743.00;;;;5079201;28;20233;-60
2023/05/01 04:09:14;;;;;;;1.90;1.47;;;;;9.00;95746.00;;;;5089536;28;20211;-58
2023/05/01 04:11:42;;;;;;;1.87;1.77;;;;;8.90;95742.00;;;;5092573;28;20215;-58
2023/05/01 04:14:09;;;;;;;1.00;1.00;;;;;8.90;95739.00;;;;5085997;28;20202;-60
2023/05/01 04:16:36;;;;;;;1.87;1.73;;;;;8.90;95741.00;;;;5082026;28;20195;-60
2023/05/01 04:19:04;;;;;;;1.00;1.00;;;;;9.00;95739.00;;;;5078974;28;20552;-61
2023/05/01 04:21:31;;;;;;;1.20;1.20;;;;;8.90;95740.00;;;;5078945;28;20203;-60
2023/05/01 04:24:00;;;;;;;1.97;1.77;;;;;8.80;95746.00;;;;5078360;28;20253;-60
2023/05/01 04:26:27;;;;;;;2.13;1.63;;;;;8.80;95747.00;;;;5077273;28;20184;-61
2023/05/01 04:28:55;;;;;;;1.83;1.73;;;;;8.80;95746.00;;;;5078914;28;20219;-60
2023/05/01 04:31:22;;;;;;;1.37;1.27;;;;;8.80;95757.00;;;;5076629;28;20215;-60
2023/05/01 04:33:50;;;;;;;1.10;1.10;;;;;8.80;95743.00;;;;5076278;28;20203;-59
2023/05/01 04:36:18;;;;;;;1.23;1.23;;;;;8.80;95747.00;;;;5076299;28;20287;-61
2023/05/01 04:38:45;;;;;;;1.63;1.53;;;;;9.00;95752.00;;;;5075720;28;20195;-61
2023/05/01 04:41:14;;;;;;;1.40;1.30;;;;;9.00;95756.00;;;;5075608;28;20218;-60
2023/05/01 04:43:41;;;;;;;1.33;1.33;;;;;9.00;95753.00;;;;5075861;28;20277;-60
2023/05/01 04:46:09;;;;;;;1.60;1.50;;;;;8.90;95754.00;;;;5060753;28;20612;-59
2023/05/01 04:48:36;;;;;;;1.93;1.77;;;;;8.90;95749.00;;;;5084840;28;20211;-59
2023/05/01 04:51:04;;;;;;;1.10;1.10;;;;;9.00;95744.00;;;;5065078;28;20241;-59
2023/05/01 04:53:31;;;;;;;1.07;1.07;;;;;9.00;95751.00;;;;5081159;28;20237;-61
2023/05/01 04:55:59;;;;;;;1.63;1.53;;;;;9.00;95747.00;;;;5087572;28;20215;-58
2023/05/01 04:58:27;;;;;;;1.93;1.83;;;;;9.00;95757.00;;;;5091027;28;20192;-60
2023/05/01 05:00:55;;;;;;;0.90;0.90;;;;;8.90;95750.00;;;;5089166;28;20215;-61
2023/05/01 05:03:22;;;;;;;1.43;1.33;;;;;9.10;95749.00;;;;5074969;28;20194;-60
2023/05/01 05:05:50;;;;;;;1.13;1.13;;;;;9.20;95750.00;;;;5074854;28;20199;-60
2023/05/01 05:08:17;;;;;;;1.67;1.53;;;;;9.20;95749.00;;;;5075060;28;20277;-60
2023/05/01 05:10:44;;;;;;;1.97;1.87;;;;;9.20;95755.00;;;;5074784;28;20212;-60
2023/05/01 05:13:12;;;;;;;1.40;1.30;;;;;9.00;95749.00;;;;5075012;28;20218;-60
2023/05/01 05:15:41;;;;;;;0.97;0.97;;;;;9.10;95755.00;;;;5074971;28;20245;-61
2023/05/01 05:18:08;;;;;;;0.60;0.60;;;;;9.20;95752.00;;;;5074933;28;20554;-60
2023/05/01 05:20:39;;;;;;;1.13;1.13;;;;;9.10;95757.00;;;;5074687;28;20215;-60
2023/05/01 05:23:06;;;;;;;6.33;2.63;;;;;9.10;95749.00;;;;5075192;28;20179;-60
2023/05/01 05:25:34;;;;;;;0.77;0.77;;;;;9.10;95755.00;;;;5056706;28;20199;-60
2023/05/01 05:28:01;;;;;;;1.00;1.00;;;;;9.20;95744.00;;;;5074403;28;20258;-60
2023/05/01 05:30:28;;;;;;;1.93;1.83;;;;;9.10;95750.00;;;;5074565;28;20214;-60
2023/05/01 05:32:57;;;;;;;1.60;1.50;;;;;9.10;95751.00;;;;5074394;28;20545;-60
2023/05/01 05:35:26;;;;;;;1.53;1.43;;;;;9.30;95761.00;;;;5074586;28;20203;-60
2023/05/01 05:37:53;;;;;;;1.60;1.60;;;;;9.30;95747.00;;;;5074380;28;20199;-61
2023/05/01 05:40:21;;;;;;;1.67;1.57;;;;;9.30;95751.00;;;;5056100;28;20227;-60
2023/05/01 05:42:48;;;;;;;1.23;1.20;;;;;9.40;95751.00;;;;5074184;28;20191;-60
2023/05/01 05:45:16;;;;;;;1.30;1.20;;;;;9.60;95754.00;;;;5074335;28;20188;-60
2023/05/01 05:47:43;;;;;;;1.20;1.20;;;;;9.60;95753.00;;;;5074317;28;20235;-60
2023/05/01 05:50:12;;;;;;;1.70;1.23;;;;;9.50;95756.00;;;;5074009;28;20215;-60
2023/05/01 05:52:39;;;;;;;1.90;1.80;;;;;9.60;95751.00;;;;5074069;28;20198;-60
2023/05/01 05:55:08;;;;;;;1.67;1.10;;;;;9.60;95761.00;;;;5074609;28;20206;-60
2023/05/01 05:57:36;;;;;;;1.20;1.20;;;;;9.70;95754.00;;;;5074594;28;20765;-60
2023/05/01 06:00:05;;;;;;;1.10;1.10;;;;;9.60;95747.00;;;;5073746;28;20207;-60
2023/05/01 06:02:32;;;;;;;0.90;0.90;;;;;9.70;95762.00;;;;5073882;28;20192;-61
2023/05/01 06:05:00;;;;;;;0.80;0.80;;;;;9.70;95767.00;;;;5073514;28;20198;-61
2023/05/01 06:07:29;;;;;;;1.10;1.10;;;;;9.80;95757.00;;;;5073850;28;20269;-61
2023/05/01 06:10:00;;;;;;;1.23;1.23;;;;;9.70;95754.00;;;;5073872;28;20219;-61
2023/05/01 06:12:28;;;;;;;0.90;0.90;;;;;9.70;95754.00;;;;5074252;28;20180;-61
2023/05/01 06:14:56;;;;;;;1.20;1.13;;;;;9.80;95746.00;;;;5073697;28;20195;-61
2023/05/01 06:17:23;;;;;;;0.83;0.83;;;;;9.70;95751.00;;;;5073738;28;20214;-61
2023/05/01 06:19:52;;;;;;;0.80;0.80;;;;;9.70;95758.00;;;;5055630;28;20237;-61
2023/05/01 06:22:19;;;;;;;3.97;1.30;;;;;9.60;95753.00;;;;5073910;28;20608;-61
2023/05/01 06:24:48;;;;;;;2.23;2.07;;;;;9.90;95756.00;;;;5073450;28;20191;-62
2023/05/01 06:27:15;;;;;;;1.00;1.00;;;;;9.90;95756.00;;;;5073636;28;20612;-61
2023/05/01 06:29:43;;;;;;;1.57;1.50;;;;;10.00;95754.00;;;;5073245;28;20702;-61
2023/05/01 06:32:10;;;;;;;2.10;1.50;;;;;9.90;95758.00;;;;5073346;28;20192;-61
2023/05/01 06:34:37;;;;;;;1.20;1.20;;;;;10.00;95758.00;;;;5073775;28;20196;-61
2023/05/01 06:37:06;;;;;;;0.80;0.80;;;;;10.10;95745.00;;;;5073476;28;20199;-62
2023/05/01 06:39:33;;;;;;;1.00;1.00;;;;;10.30;95751.00;;;;5073517;28;20187;-61
2023/05/01 06:42:02;;;;;;;0.90;0.90;;;;;10.40;95755.00;;;;5069135;22;20242;-62
2023/05/01 06:44:30;;;;;;;1.20;1.20;;;;;10.60;95762.00;;;;5073192;28;20195;-62
2023/05/01 06:46:57;;;;;;;0.87;0.87;;;;;10.80;95763.00;;;;5073288;28;20195;-62
2023/05/01 06:49:25;;;;;;;2.00;1.60;;;;;10.80;95761.00;;;;5073149;28;20281;-62
2023/05/01 06:51:52;;;;;;;1.70;1.53;;;;;10.90;95764.00;;;;5073389;28;20207;-62
2023/05/01 06:54:19;;;;;;;1.10;1.10;;;;;11.00;95767.00;;;;5073425;28;20222;-62
2023/05/01 06:56:47;;;;;;;1.47;1.37;;;;;11.00;95767.00;;;;5073640;28;20187;-62
2023/05/01 06:59:15;;;;;;;1.67;1.57;;;;;11.10;95763.00;;;;5073308;28;20189;-62
2023/05/01 07:01:43;;;;;;;1.43;1.33;;;;;11.20;95768.00;;;;5073006;28;20555;-62
2023/05/01 07:04:10;;;;;;;1.20;1.20;;;;;11.30;95762.00;;;;5073119;28;20195;-62
2023/05/01 07:06:38;;;;;;;1.73;1.63;;;;;11.30;95766.00;;;;5073595;28;20197;-62
2023/05/01 07:09:06;;;;;;;1.50;0.97;;;;;11.50;95772.00;;;;5073057;28;20226;-62
2023/05/01 07:11:33;;;;;;;1.40;1.40;;;;;11.50;95765.00;;;;5072970;28;20199;-62
2023/05/01 07:14:01;;;;;;;1.60;1.50;;;;;11.60;95768.00;;;;5073022;28;20191;-62
2023/05/01 07:16:29;;;;;;;2.67;2.43;;;;;11.60;95767.00;;;;5075197;28;20195;-62
2023/05/01 07:18:57;;;;;;;1.40;1.40;;;;;11.70;95766.00;;;;5077328;28;20278;-62
2023/05/01 07:21:24;;;;;;;1.43;1.33;;;;;11.70;95767.00;;;;5076905;28;20667;-62
2023/05/01 07:23:52;;;;;;;0.70;0.70;;;;;12.00;95766.00;;;;5076953;28;20198;-62
2023/05/01 07:26:19;;;;;;;1.37;1.37;;;;;12.00;95756.00;;;;5076817;28;20203;-61
2023/05/01 07:28:47;;;;;;;1.70;1.60;;;;;12.00;95762.00;;;;5076749;28;20223;-61
2023/05/01 07:31:14;;;;;;;2.10;1.57;;;;;12.10;95755.00;;;;5076758;28;20195;-61
2023/05/01 07:33:44;;;;;;;1.23;1.23;;;;;12.40;95750.00;;;;5076900;28;20211;-63
2023/05/01 07:36:17;;;;;;;1.03;1.03;;;;;12.60;95756.00;;;;5076922;28;20188;-61
2023/05/01 07:38:45;;;;;;;1.50;1.40;;;;;12.70;95755.00;;;;5076963;28;20210;-63
2023/05/01 07:41:12;;;;;;;1.33;1.33;;;;;12.90;95757.00;;;;5076604;28;20279;-63
2023/05/01 07:43:39;;;;;;;0.80;0.80;;;;;13.00;95751.00;;;;5058508;28;20235;-63
2023/05/01 07:46:07;;;;;;;0.97;0.97;;;;;13.10;95743.00;;;;5058678;28;20570;-63
2023/05/01 07:48:34;;;;;;;0.90;0.90;;;;;13.00;95745.00;;;;5076556;28;20187;-61
2023/05/01 07:51:04;;;;;;;1.33;1.23;;;;;13.10;95739.00;;;;5058571;28;20245;-63
2023/05/01 07:53:32;;;;;;;1.33;1.33;;;;;13.30;95741.00;;;;5076371;28;20211;-63
2023/05/01 07:56:07;;;;;;;1.47;1.47;;;;;13.50;95743.00;;;;5076854;28;20278;-63
2023/05/01 07:58:35;;;;;;;0.93;0.93;;;;;13.60;95737.00;;;;5076360;28;20209;-63
2023/05/01 08:01:02;;;;;;;0.80;0.80;;;;;13.90;95742.00;;;;5076253;28;20199;-63
2023/05/01 08:03:30;;;;;;;1.50;1.40;;;;;13.50;95737.00;;;;5076372;28;20215;-62
2023/05/01 08:05:58;;;;;;;1.00;1.00;;;;;13.40;95740.00;;;;5076065;28;20826;-63
2023/05/01 08:08:27;;;;;;;1.20;1.10;;;;;13.60;95735.00;;;;5058105;28;20214;-62
2023/05/01 08:10:55;;;;;;;7.53;1.47;;;;;13.90;95745.00;;;;5076005;28;20223;-64
2023/05/01 08:13:22;;;;;;;1.20;1.20;;;;;14.20;95742.00;;;;5075969;28;20221;-63
2023/05/01 08:15:49;;;;;;;0.87;0.87;;;;;14.30;95737.00;;;;5076211;28;20196;-63
2023/05/01 08:18:19;;;;;;;0.97;0.97;;;;;14.30;95750.00;;;;5075912;28;20222;-63
2023/05/01 08:20:47;;;;;;;1.13;1.07;;;;;14.30;95738.00;;;;5076152;28;20594;-62
2023/05/01 08:23:15;;;;;;;2.37;1.70;;;;;14.30;95746.00;;;;5075984;28;20617;-62
2023/05/01 08:25:45;;;;;;;1.10;1.10;;;;;14.50;95739.00;;;;5075702;28;20213;-62
2023/05/01 08:28:14;;;;;;;0.93;0.93;;;;;14.60;95734.00;;;;5057154;28;20248;-62
2023/05/01 08:30:42;;;;;;;1.43;1.33;;;;;14.70;95731.00;;;;5075480;28;20215;-63
2023/05/01 08:33:10;;;;;;;0.97;0.97;;;;;15.20;95727.00;;;;5075869;28;20251;-61
2023/05/01 08:35:37;;;;;;;13.63;1.70;;;;;15.50;95735.00;;;;5057611;28;20219;-61
2023/05/01 08:38:05;;;;;;;0.70;0.70;;;;;15.50;95732.00;;;;5075590;28;20192;-61
2023/05/01 08:40:36;;;;;;;1.17;1.13;;;;;15.60;95727.00;;;;5075776;28;20184;-61
2023/05/01 08:43:05;;;;;;;2.23;2.00;;;;;15.40;95729.00;;;;5075311;28;20223;-61
2023/05/01 08:45:36;;;;;;;1.07;1.07;;;;;15.40;95728.00;;;;5075327;28;20204;-60
2023/05/01 08:48:06;;;;;;;0.80;0.80;;;;;15.60;95731.00;;;;5075391;28;20179;-61
2023/05/01 08:50:36;;;;;;;1.60;1.50;;;;;15.70;95735.00;;;;5075296;28;20200;-60
2023/05/01 08:53:04;;;;;;;1.20;1.20;;;;;16.10;95736.00;;;;5075340;28;20211;-62
2023/05/01 08:55:33;;;;;;;1.07;1.07;;;;;15.80;95730.00;;;;5075141;28;20192;-61
2023/05/01 08:58:01;;;;;;;1.30;1.20;;;;;15.70;95725.00;;;;5075350;28;20666;-60
2023/05/01 09:00:33;;;;;;;4.53;2.73;;;;;15.80;95725.00;;;;5075383;28;20198;-61
2023/05/01 09:03:03;;;;;;;1.77;1.67;;;;;15.90;95729.00;;;;5075359;28;20585;-61
2023/05/01 09:05:33;;;;;;;1.30;1.20;;;;;15.60;95730.00;;;;5075319;28;20180;-61
2023/05/01 09:08:02;;;;;;;1.30;1.30;;;;;15.60;95723.00;;;;5074992;28;20700;-61
2023/05/01 09:10:30;;;;;;;1.93;1.83;;;;;15.70;95735.00;;;;5075415;28;20534;-61
2023/05/01 09:13:01;;;;;;;4.07;0.90;;;;;15.80;95741.00;;;;5074896;28;20216;-61
2023/05/01 09:15:30;;;;;;;1.30;1.20;;;;;15.70;95732.00;;;;5075001;28;20172;-61
2023/05/01 09:18:00;;;;;;;3.50;1.27;;;;;15.70;95740.00;;;;5074783;28;20196;-61
2023/05/01 09:20:29;;;;;;;1.20;1.07;;;;;15.80;95740.00;;;;5056758;28;20606;-61
2023/05/01 09:22:57;;;;;;;1.53;1.23;;;;;15.90;95739.00;;;;5074611;28;20254;-61
2023/05/01 09:25:24;;;;;;;1.60;1.50;;;;;15.90;95739.00;;;;5074763;28;20277;-61
2023/05/01 09:27:53;;;;;;;0.97;0.97;;;;;16.20;95731.00;;;;5074449;28;20682;-60
2023/05/01 09:30:35;;;;;;;1.40;1.30;;;;;16.10;95729.00;;;;5074328;28;20219;-60
2023/05/01 09:33:07;;;;;;;1.67;1.20;;;;;15.80;95732.00;;;;5074436;28;20215;-60
2023/05/01 09:35:52;;;;;;;1.03;1.03;;;;;15.90;95734.00;;;;5074332;28;20689;-62
2023/05/01 09:38:21;;;;;;;0.80;0.80;;;;;15.80;95743.00;;;;5074322;28;20290;-62
2023/05/01 09:40:48;;;;;;;1.57;1.47;;;;;15.60;95736.00;;;;5073409;28;20184;-62
2023/05/01 09:43:26;;;;;;;0.80;0.80;;;;;15.70;95737.00;;;;5073970;28;20310;-62
2023/05/01 09:46:09;;;;;;;0.70;0.70;;;;;15.60;95736.00;;;;5074109;28;20176;-62
2023/05/01 09:48:37;;;;;;;1.83;1.73;;;;;15.80;95739.00;;;;5074367;28;20183;-64
2023/05/01 09:51:21;;;;;;;2.73;1.20;;;;;15.60;95735.00;;;;5074102;28;20219;-62
2023/05/01 09:53:50;;;;;;;0.83;0.83;;;;;15.50;95743.00;;;;5074408;28;20179;-63
2023/05/01 09:56:17;;;;;;;1.00;1.00;;;;;15.20;95738.00;;;;5074011;28;20243;-65
2023/05/01 09:58:45;;;;;;;0.83;0.83;;;;;15.10;95745.00;;;;5074077;28;20191;-61
2023/05/01 10:01:14;;;;;;;1.30;1.30;;;;;15.30;95747.00;;;;5074159;28;20210;-63
2023/05/01 10:03:44;;;;;;;0.83;0.83;;;;;15.00;95744.00;;;;5073799;28;20226;-63
2023/05/01 10:06:11;;;;;;;1.50;1.43;;;;;15.20;95745.00;;;;5073836;28;20274;-62
2023/05/01 10:08:46;;;;;;;1.63;1.53;;;;;14.80;95752.00;;;;5074039;28;20560;-62
2023/05/01 10:11:13;;;;;;;0.87;0.87;;;;;14.50;95752.00;;;;5073679;28;20328;-63
2023/05/01 10:13:41;;;;;;;0.87;0.87;;;;;14.90;95752.00;;;;5073866;28;20632;-64
2023/05/01 10:16:27;;;;;;;1.00;1.00;;;;;14.70;95759.00;;;;5073625;28;20191;-63
2023/05/01 10:18:56;;;;;;;2.57;1.37;;;;;14.80;95756.00;;;;5055745;28;20527;-65
2023/05/01 10:21:24;;;;;;;2.10;1.43;;;;;14.90;95755.00;;;;5074251;28;20222;-64
2023/05/01 10:23:52;;;;;;;0.80;0.80;;;;;14.90;95755.00;;;;5073758;28;20617;-65
2023/05/01 10:26:20;;;;;;;1.93;1.37;;;;;15.00;95755.00;;;;5073710;28;20608;-64
2023/05/01 10:28:49;;;;;;;1.03;1.03;;;;;14.90;95761.00;;;;5073406;28;20203;-65
2023/05/01 10:31:17;;;;;;;0.77;0.77;;;;;14.90;95755.00;;;;5073623;28;20259;-64
2023/05/01 10:33:46;;;;;;;0.60;0.60;;;;;15.00;95750.00;;;;5073743;28;20554;-66
2023/05/01 10:36:18;;;;;;;0.90;0.90;;;;;14.60;95757.00;;;;5073316;28;20199;-64
2023/05/01 10:38:47;;;;;;;1.10;1.10;;;;;15.00;95760.00;;;;5073871;28;20180;-63
2023/05/01 10:41:15;;;;;;;1.00;1.00;;;;;15.20;95751.00;;;;5055272;28;20650;-63
2023/05/01 10:43:43;;;;;;;1.00;1.00;;;;;15.20;95751.00;;;;5073039;28;20210;-64
2023/05/01 10:46:26;;;;;;;0.80;0.80;;;;;15.60;95749.00;;;;5073808;28;20642;-64
2023/05/01 10:48:59;;;;;;;1.30;1.30;;;;;16.00;95746.00;;;;5073254;28;20184;-64
2023/05/01 10:51:27;;;;;;;4.40;1.53;;;;;16.50;95736.00;;;;5072779;28;20219;-64
2023/05/01 10:54:26;;;;;;;1.20;1.20;;;;;17.00;95738.00;;;;5073171;28;20245;-65
2023/05/01 10:56:54;;;;;;;1.40;1.30;;;;;17.20;95738.00;;;;5055073;28;20195;-63
2023/05/01 10:59:21;;;;;;;0.60;0.60;;;;;17.10;95732.00;;;;5073247;28;20259;-63
2023/05/01 11:01:50;;;;;;;0.80;0.80;;;;;17.50;95732.00;;;;5072968;28;20214;-63
2023/05/01 11:04:54;;;;;;;1.03;1.03;;;;;17.30;95737.00;;;;5072961;28;20666;-63
2023/05/01 11:07:23;;;;;;;0.90;0.90;;;;;17.30;95745.00;;;;5073000;28;20266;-63
2023/05/01 11:09:54;;;;;;;2.07;1.43;;;;;17.10;95737.00;;;;5072896;28;20218;-63
2023/05/01 11:12:52;;;;;;;1.23;1.23;;;;;16.90;95740.00;;;;5073137;28;20215;-63
2023/05/01 11:15:30;;;;;;;1.03;0.83;;;;;16.60;95740.00;;;;5072930;28;20187;-63
2023/05/01 11:17:59;;;;;;;0.73;0.73;;;;;16.60;95739.00;;;;5073211;28;20198;-63
2023/05/01 11:20:50;;;;;;;0.87;0.87;;;;;16.60;95741.00;;;;5073482;28;20183;-64
2023/05/01 11:23:22;;;;;;;1.07;1.07;;;;;16.40;95728.00;;;;5072883;28;20207;-63
2023/05/01 11:25:50;;;;;;;0.93;0.93;;;;;16.60;95729.00;;;;5073090;28;20540;-63
2023/05/01 11:28:24;;;;;;;1.17;1.17;;;;;16.50;95732.00;;;;5073148;28;20191;-64
2023/05/01 11:30:51;;;;;;;0.70;0.70;;;;;16.60;95724.00;;;;5073113;28;20211;-64
2023/05/01 11:33:24;;;;;;;0.90;0.90;;;;;16.50;95725.00;;;;5073001;28;20322;-63
2023/05/01 11:36:01;;;;;;;1.20;1.10;;;;;16.50;95730.00;;;;5073158;28;20176;-64
2023/05/01 11:38:28;;;;;;;1.17;1.17;;;;;16.80;95732.00;;;;5072766;28;20195;-63
2023/05/01 11:40:59;;;;;;;1.17;1.17;;;;;16.80;95720.00;;;;5072766;28;20187;-64
2023/05/01 11:43:27;;;;;;;0.77;0.77;;;;;16.80;95722.00;;;;5072649;28;20605;-63
2023/05/01 11:46:00;;;;;;;0.80;0.80;;;;;16.80;95720.00;;;;5072659;28;20662;-63
2023/05/01 11:48:29;;;;;;;0.90;0.90;;;;;17.00;95717.00;;;;5072751;28;20211;-64
2023/05/01 11:50:58;;;;;;;0.80;0.80;;;;;16.60;95724.00;;;;5054571;28;20294;-62
2023/05/01 11:53:26;;;;;;;1.10;1.03;;;;;16.10;95720.00;;;;5072518;28;20218;-63
2023/05/01 11:55:53;;;;;;;0.93;0.93;;;;;16.10;95725.00;;;;5072519;28;20241;-64
2023/05/01 11:58:35;;;;;;;1.30;1.20;;;;;16.20;95730.00;;;;5072574;28;20535;-64
2023/05/01 12:01:02;;;;;;;0.80;0.80;;;;;15.90;95728.00;;;;5072474;28;20777;-63
2023/05/01 12:03:42;;;;;;;2.30;1.17;;;;;15.80;95732.00;;;;5074581;28;20306;-63
2023/05/01 12:06:11;;;;;;;0.90;0.90;;;;;15.80;95730.00;;;;5076235;28;20190;-64
2023/05/01 12:08:43;;;;;;;1.30;1.30;;;;;15.70;95720.00;;;;5058200;28;20195;-64
2023/05/01 12:11:11;;;;;;;0.97;0.97;;;;;16.00;95715.00;;;;5076004;28;20252;-64
2023/05/01 12:13:40;;;;;;;1.37;1.27;;;;;15.90;95718.00;;;;5076153;28;20597;-64
2023/05/01 12:16:09;;;;;;;1.40;1.40;;;;;15.80;95728.00;;;;5075841;28;20199;-63
2023/05/01 12:18:36;;;;;;;1.00;1.00;;;;;15.90;95722.00;;;;5076196;28;20191;-63
2023/05/01 12:21:04;;;;;;;2.17;2.07;;;;;16.00;95721.00;;;;5076101;28;20550;-63
2023/05/01 12:23:36;;;;;;;1.73;1.63;;;;;16.20;95729.00;;;;5075688;28;20222;-63
2023/05/01 12:26:15;;;;;;;1.37;1.27;;;;;16.50;95720.00;;;;5075763;28;20702;-64
2023/05/01 12:28:54;;;;;;;1.20;1.20;;;;;16.80;95707.00;;;;5076300;28;20214;-64
2023/05/01 12:31:22;;;;;;;2.13;1.57;;;;;17.10;95721.00;;;;5075610;28;20195;-64
2023/05/01 12:33:57;;;;;;;1.00;1.00;;;;;17.10;95723.00;;;;5075633;28;20196;-64
2023/05/01 12:36:26;;;;;;;1.33;1.27;;;;;16.90;95737.00;;;;5075931;28;20195;-63